Time;durP1;ratioP1;P1;durP2;ratioP2;P2;SDS_P1;SDS_P2;PMS_P1;PMS_P2;Temp;Humidity;BMP_temperature;BMP_pressure;BME280_temperature;BME280_humidity;BME280_pressure;Samples;Min_cycle;Max_cycle;Signal;HPM_P1;HPM_P2
2022/09/30 00:00:42;;;;;;;;;;;;;;;19.69;77.97;96578.00;625560;227;67031;-75
2022/09/30 00:03:10;;;;;;;;;;;;;;;19.68;77.94;96571.08;625529;227;67202;-75
2022/09/30 00:05:37;;;;;;;;;;;;;;;19.69;77.85;96580.66;625570;227;65260;-75
2022/09/30 00:08:05;;;;;;;;;;;;;;;19.68;77.95;96579.88;625613;227;67329;-78
2022/09/30 00:10:32;;;;;;;;;;;;;;;19.70;78.00;96579.61;625522;227;67676;-75
2022/09/30 00:13:00;;;;;;;;;;;;;;;19.69;77.99;96581.45;625555;227;64845;-75
2022/09/30 00:15:28;;;;;;;;;;;;;;;19.69;78.06;96584.12;625424;226;64791;-75
2022/09/30 00:17:55;;;;;;;;;;;;;;;19.69;77.94;96581.45;622500;228;66715;-75
2022/09/30 00:20:23;;;;;;;;;;;;;;;19.70;78.01;96585.73;622567;228;64834;-76
2022/09/30 00:22:51;;;;;;;;;;;;;;;19.70;77.90;96595.61;622478;228;66405;-75
2022/09/30 00:25:18;;;;;;;;;;;;;;;19.69;77.94;96589.45;622476;228;66696;-75
2022/09/30 00:27:46;;;;;;;;;;;;;;;19.70;78.10;96590.27;622447;228;64975;-75
2022/09/30 00:30:13;;;;;;;;;;;;;;;19.68;78.06;96590.53;622497;228;66962;-75
2022/09/30 00:32:41;;;;;;;;;;;;;;;19.69;78.13;96597.45;622517;228;66804;-75
2022/09/30 00:35:08;;;;;;;;;;;;;;;19.69;78.17;96592.12;622487;228;62774;-75
2022/09/30 00:37:36;;;;;;;;;;;;;;;19.69;78.12;96592.12;622451;228;66692;-75
2022/09/30 00:40:03;;;;;;;;;;;;;;;19.69;78.10;96594.78;622501;228;64651;-75
2022/09/30 00:42:31;;;;;;;;;;;;;;;19.70;78.12;96592.94;622458;228;65060;-76
2022/09/30 00:45:06;;;;;;;;;;;;;;;19.68;78.13;96593.20;622508;228;67899;-75
2022/09/30 00:47:42;;;;;;;;;;;;;;;19.70;78.09;96598.27;622460;228;66895;-75
2022/09/30 00:50:17;;;;;;;;;;;;;;;19.70;78.25;96593.73;622445;228;62865;-78
2022/09/30 00:52:46;;;;;;;;;;;;;;;19.69;78.14;96594.78;622418;228;64858;-76
2022/09/30 00:55:22;;;;;;;;;;;;;;;19.69;78.06;96600.12;622477;228;64828;-76
2022/09/30 00:57:49;;;;;;;;;;;;;;;19.69;78.04;96599.32;611643;228;63774;-76
2022/09/30 01:00:17;;;;;;;;;;;;;;;19.69;78.13;96597.45;622482;228;65048;-76
2022/09/30 01:02:46;;;;;;;;;;;;;;;19.69;78.14;96602.78;622421;228;67132;-77
2022/09/30 01:05:13;;;;;;;;;;;;;;;19.69;78.15;96608.11;622454;228;63882;-77
2022/09/30 01:07:41;;;;;;;;;;;;;;;19.69;78.24;96607.32;622471;228;64873;-77
2022/09/30 01:10:08;;;;;;;;;;;;;;;19.69;78.06;96615.32;622465;228;66632;-77
2022/09/30 01:12:36;;;;;;;;;;;;;;;19.69;78.03;96607.32;622494;228;65487;-77
2022/09/30 01:15:04;;;;;;;;;;;;;;;19.69;78.19;96613.45;622445;228;67142;-76
2022/09/30 01:17:35;;;;;;;;;;;;;;;19.69;78.19;96613.45;625103;226;64835;-77
2022/09/30 01:20:14;;;;;;;;;;;;;;;19.69;78.13;96610.78;625310;227;64944;-76
2022/09/30 01:22:49;;;;;;;;;;;;;;;19.67;78.17;96610.28;625086;227;65188;-76
2022/09/30 01:25:34;;;;;;;;;;;;;;;19.69;78.13;96608.11;624983;227;67151;-77
2022/09/30 01:28:20;;;;;;;;;;;;;;;19.69;78.24;96617.98;625547;227;65070;-77
2022/09/30 01:31:04;;;;;;;;;;;;;;;19.69;78.16;96612.66;625588;227;64964;-78
2022/09/30 01:33:46;;;;;;;;;;;;;;;19.67;78.17;96601.45;625520;227;67047;-76
2022/09/30 01:36:15;;;;;;;;;;;;;;;19.67;78.18;96602.28;625541;227;62861;-76
2022/09/30 01:38:44;;;;;;;;;;;;;;;19.67;78.12;96593.45;625206;227;64470;-76
2022/09/30 01:41:13;;;;;;;;;;;;;;;19.66;78.14;96595.33;625448;227;64660;-77
2022/09/30 01:43:43;;;;;;;;;;;;;;;19.67;78.23;96599.61;625233;227;62793;-76
2022/09/30 01:46:15;;;;;;;;;;;;;;;19.66;78.25;96598.00;622782;227;68197;-77
2022/09/30 01:48:47;;;;;;;;;;;;;;;19.67;78.29;96598.79;625356;227;67048;-77
2022/09/30 01:51:16;;;;;;;;;;;;;;;19.68;78.26;96603.07;625440;227;65153;-77
2022/09/30 01:53:52;;;;;;;;;;;;;;;19.68;78.24;96598.53;624505;227;64865;-77
2022/09/30 01:56:24;;;;;;;;;;;;;;;19.67;78.18;96599.61;625389;227;65020;-77
2022/09/30 01:58:56;;;;;;;;;;;;;;;19.67;78.13;96599.61;624926;227;65029;-78
2022/09/30 02:01:30;;;;;;;;;;;;;;;19.66;78.04;96603.33;625114;227;67202;-77
2022/09/30 02:03:59;;;;;;;;;;;;;;;19.67;78.16;96599.61;624620;227;67072;-78
2022/09/30 02:06:28;;;;;;;;;;;;;;;19.68;78.31;96595.87;625479;227;65097;-77
2022/09/30 02:09:00;;;;;;;;;;;;;;;19.67;78.26;96602.28;625400;227;67428;-77
2022/09/30 02:11:29;;;;;;;;;;;;;;;19.67;78.26;96604.13;625065;227;64966;-77
2022/09/30 02:13:58;;;;;;;;;;;;;;;19.68;78.18;96605.73;625529;227;64880;-77
2022/09/30 02:16:27;;;;;;;;;;;;;;;19.68;78.23;96597.73;624207;226;66960;-77
2022/09/30 02:18:59;;;;;;;;;;;;;;;19.67;78.23;96599.61;622444;228;66770;-78
2022/09/30 02:21:27;;;;;;;;;;;;;;;19.67;78.24;96604.95;622428;228;65087;-77
2022/09/30 02:23:58;;;;;;;;;;;;;;;19.68;78.18;96603.86;622363;228;64855;-77
2022/09/30 02:26:27;;;;;;;;;;;;;;;19.67;78.25;96599.61;622477;228;66783;-77
2022/09/30 02:28:56;;;;;;;;;;;;;;;19.68;78.14;96611.06;622439;228;66101;-78
2022/09/30 02:31:25;;;;;;;;;;;;;;;19.68;78.23;96617.19;622487;228;67033;-77
2022/09/30 02:33:54;;;;;;;;;;;;;;;19.69;78.10;96617.98;622417;228;67990;-77
2022/09/30 02:36:30;;;;;;;;;;;;;;;19.68;78.14;96617.19;622438;228;62656;-77
2022/09/30 02:39:08;;;;;;;;;;;;;;;19.67;78.21;96612.94;622205;228;67104;-77
2022/09/30 02:41:40;;;;;;;;;;;;;;;19.68;78.26;96622.52;622359;228;67092;-76
2022/09/30 02:44:07;;;;;;;;;;;;;;;19.69;78.21;96625.98;622323;228;62766;-76
2022/09/30 02:46:48;;;;;;;;;;;;;;;19.67;78.19;96626.27;622472;228;65810;-76
2022/09/30 02:49:32;;;;;;;;;;;;;;;19.69;78.25;96634.77;622327;228;64796;-76
2022/09/30 02:52:01;;;;;;;;;;;;;;;19.67;78.17;96628.94;622415;228;65532;-77
2022/09/30 02:54:33;;;;;;;;;;;;;;;19.68;78.21;96627.86;622298;228;66935;-77
2022/09/30 02:57:03;;;;;;;;;;;;;;;19.68;78.30;96633.19;622422;228;65722;-77
2022/09/30 02:59:31;;;;;;;;;;;;;;;19.68;78.37;96633.19;622081;228;64905;-76
2022/09/30 03:01:58;;;;;;;;;;;;;;;19.67;78.29;96628.94;622505;228;67305;-77
2022/09/30 03:04:27;;;;;;;;;;;;;;;19.68;78.30;96633.19;622477;228;64812;-77
2022/09/30 03:06:55;;;;;;;;;;;;;;;19.67;78.34;96631.61;622452;228;66087;-76
2022/09/30 03:09:26;;;;;;;;;;;;;;;19.68;78.26;96624.40;622466;228;67040;-76
2022/09/30 03:11:55;;;;;;;;;;;;;;;19.68;78.23;96616.40;622447;228;67092;-76
2022/09/30 03:14:31;;;;;;;;;;;;;;;19.68;78.30;96625.19;622347;228;62824;-77
2022/09/30 03:17:09;;;;;;;;;;;;;;;19.67;78.25;96626.27;624451;226;67259;-76
2022/09/30 03:19:54;;;;;;;;;;;;;;;19.68;78.27;96629.73;625347;227;67202;-76
2022/09/30 03:22:40;;;;;;;;;;;;;;;19.67;78.25;96636.11;625552;227;64559;-76
2022/09/30 03:25:15;;;;;;;;;;;;;;;19.67;78.31;96634.27;625519;227;67178;-76
2022/09/30 03:27:45;;;;;;;;;;;;;;;19.68;78.41;96638.52;625592;227;65766;-75
2022/09/30 03:30:17;;;;;;;;;;;;;;;19.67;78.32;96633.45;625550;227;65150;-75
2022/09/30 03:32:58;;;;;;;;;;;;;;;19.66;78.37;96624.66;625604;227;64719;-75
2022/09/30 03:35:27;;;;;;;;;;;;;;;19.67;78.37;96628.11;625286;227;66905;-76
2022/09/30 03:38:12;;;;;;;;;;;;;;;19.66;78.27;96619.33;625552;227;63702;-76
2022/09/30 03:40:44;;;;;;;;;;;;;;;19.67;78.36;96615.61;625462;227;67252;-76
2022/09/30 03:43:13;;;;;;;;;;;;;;;19.66;78.36;96619.33;625584;227;66711;-76
2022/09/30 03:45:42;;;;;;;;;;;;;;;19.66;78.34;96621.98;625545;227;64822;-76
2022/09/30 03:48:11;;;;;;;;;;;;;;;19.66;78.32;96616.66;625461;227;67231;-76
2022/09/30 03:50:40;;;;;;;;;;;;;;;19.66;78.33;96621.98;625594;227;67265;-76
2022/09/30 03:53:11;;;;;;;;;;;;;;;19.67;78.35;96617.45;625521;227;62819;-76
2022/09/30 03:55:48;;;;;;;;;;;;;;;19.67;78.33;96612.94;625519;227;65189;-76
2022/09/30 03:58:18;;;;;;;;;;;;;;;19.67;78.41;96618.27;625541;227;65690;-76
2022/09/30 04:00:48;;;;;;;;;;;;;;;19.67;78.38;96615.61;625264;227;65087;-76
2022/09/30 04:03:18;;;;;;;;;;;;;;;19.67;78.41;96620.12;625573;227;67290;-77
2022/09/30 04:05:46;;;;;;;;;;;;;;;19.67;78.36;96628.94;625552;227;66656;-76
2022/09/30 04:08:14;;;;;;;;;;;;;;;19.68;78.41;96633.19;625584;227;62988;-76
2022/09/30 04:10:42;;;;;;;;;;;;;;;19.68;78.27;96627.86;625574;227;64543;-76
2022/09/30 04:13:11;;;;;;;;;;;;;;;19.67;78.43;96628.94;625582;227;64550;-76
2022/09/30 04:15:39;;;;;;;;;;;;;;;19.68;78.33;96632.39;625213;226;64931;-76
2022/09/30 04:18:07;;;;;;;;;;;;;;;19.66;78.34;96631.86;622473;228;65011;-77
2022/09/30 04:20:35;;;;;;;;;;;;;;;19.68;78.35;96640.39;622452;228;66851;-77
2022/09/30 04:23:02;;;;;;;;;;;;;;;19.68;78.39;96641.19;622476;228;65022;-76
2022/09/30 04:25:30;;;;;;;;;;;;;;;19.66;78.32;96648.65;622448;228;67069;-77
2022/09/30 04:27:57;;;;;;;;;;;;;;;19.67;78.42;96647.59;622457;228;66832;-77
2022/09/30 04:30:25;;;;;;;;;;;;;;;19.68;78.35;96651.05;622546;228;66442;-75
2022/09/30 04:32:54;;;;;;;;;;;;;;;19.68;78.32;96654.52;622445;227;48994;-76
2022/09/30 04:35:22;;;;;;;;;;;;;;;19.67;78.32;96666.27;622506;228;66671;-78
2022/09/30 04:37:49;;;;;;;;;;;;;;;19.68;78.39;96673.18;622457;228;65048;-77
2022/09/30 04:40:17;;;;;;;;;;;;;;;19.66;78.28;96661.98;622467;228;66830;-77
2022/09/30 04:42:47;;;;;;;;;;;;;;;19.67;78.41;96665.44;622554;228;66788;-76
2022/09/30 04:45:15;;;;;;;;;;;;;;;19.68;78.31;96675.84;622467;228;62856;-75
2022/09/30 04:47:45;;;;;;;;;;;;;;;19.68;78.21;96683.84;622486;228;64374;-76
2022/09/30 04:50:13;;;;;;;;;;;;;;;19.67;78.26;96684.09;622485;228;66722;-76
2022/09/30 04:52:43;;;;;;;;;;;;;;;19.68;78.30;96678.51;622488;228;65147;-76
2022/09/30 04:55:11;;;;;;;;;;;;;;;19.67;78.41;96676.10;622506;228;64497;-76
2022/09/30 04:57:39;;;;;;;;;;;;;;;19.67;78.34;96681.43;622453;228;65546;-76
2022/09/30 05:00:08;;;;;;;;;;;;;;;19.67;78.29;96668.92;622422;228;62672;-76
2022/09/30 05:02:36;;;;;;;;;;;;;;;19.68;78.37;96667.05;622423;228;67244;-77
2022/09/30 05:05:03;;;;;;;;;;;;;;;19.66;78.28;96672.64;622419;228;67182;-76
2022/09/30 05:07:31;;;;;;;;;;;;;;;19.67;78.36;96671.59;622430;228;65023;-77
2022/09/30 05:09:59;;;;;;;;;;;;;;;19.66;78.29;96680.64;622484;228;64614;-77
2022/09/30 05:12:26;;;;;;;;;;;;;;;19.67;78.26;96687.59;622361;228;64833;-76
2022/09/30 05:14:54;;;;;;;;;;;;;;;19.67;78.32;96686.77;622424;228;64918;-76
2022/09/30 05:17:23;;;;;;;;;;;;;;;19.67;78.29;96692.09;622450;226;64910;-77
2022/09/30 05:19:51;;;;;;;;;;;;;;;19.67;78.32;96695.59;622424;228;66902;-76
2022/09/30 05:22:22;;;;;;;;;;;;;;;19.67;78.35;96698.25;622537;228;62647;-76
2022/09/30 05:24:49;;;;;;;;;;;;;;;19.67;78.33;96708.09;622439;228;66944;-77
2022/09/30 05:27:17;;;;;;;;;;;;;;;19.67;78.29;96705.42;622459;228;67783;-76
2022/09/30 05:29:44;;;;;;;;;;;;;;;19.68;78.27;96707.04;622426;228;65325;-76
2022/09/30 05:32:12;;;;;;;;;;;;;;;19.67;78.33;96708.91;622434;228;68093;-76
2022/09/30 05:34:39;;;;;;;;;;;;;;;19.67;78.29;96716.91;622476;228;64927;-77
2022/09/30 05:37:08;;;;;;;;;;;;;;;19.68;78.31;96713.17;622426;228;62769;-77
2022/09/30 05:39:36;;;;;;;;;;;;;;;19.66;78.27;96717.96;622379;228;67229;-77
2022/09/30 05:42:03;;;;;;;;;;;;;;;19.67;78.26;96727.58;622411;228;64796;-76
2022/09/30 05:44:31;;;;;;;;;;;;;;;19.67;78.31;96721.42;622420;228;65823;-77
2022/09/30 05:46:58;;;;;;;;;;;;;;;19.66;78.27;96720.62;622503;228;64801;-76
2022/09/30 05:49:27;;;;;;;;;;;;;;;19.67;78.34;96722.24;622433;228;65808;-76
2022/09/30 05:51:54;;;;;;;;;;;;;;;19.66;78.32;96723.30;622314;228;64912;-79
2022/09/30 05:54:22;;;;;;;;;;;;;;;19.67;78.26;96726.75;622306;228;64811;-77
2022/09/30 05:56:49;;;;;;;;;;;;;;;19.66;78.35;96731.29;622020;228;66825;-78
2022/09/30 05:59:17;;;;;;;;;;;;;;;19.67;78.37;96729.42;620349;228;64914;-75
2022/09/30 06:01:45;;;;;;;;;;;;;;;19.67;78.34;96724.91;615745;230;67059;-76
2022/09/30 06:04:12;;;;;;;;;;;;;;;19.66;78.27;96723.30;615618;230;67073;-74
2022/09/30 06:06:40;;;;;;;;;;;;;;;19.66;78.37;96728.63;620306;228;65155;-75
2022/09/30 06:09:08;;;;;;;;;;;;;;;19.67;78.33;96729.42;622396;228;64875;-74
2022/09/30 06:11:35;;;;;;;;;;;;;;;19.66;78.19;96731.29;622409;228;64364;-75
2022/09/30 06:14:03;;;;;;;;;;;;;;;19.65;77.62;96728.88;622417;228;64917;-75
2022/09/30 06:16:31;;;;;;;;;;;;;;;19.64;77.53;96733.42;622259;226;64897;-74
2022/09/30 06:18:58;;;;;;;;;;;;;;;19.64;77.12;96733.42;622283;228;65098;-67
2022/09/30 06:21:27;;;;;;;;;;;;;;;19.66;77.02;96730.50;622397;228;64858;-73
2022/09/30 06:23:55;;;;;;;;;;;;;;;19.67;76.97;96742.75;622324;228;67032;-74
2022/09/30 06:26:24;;;;;;;;;;;;;;;19.66;76.80;96731.29;622434;228;66957;-74
2022/09/30 06:28:52;;;;;;;;;;;;;;;19.67;77.08;96740.91;622344;228;65127;-74
2022/09/30 06:31:20;;;;;;;;;;;;;;;19.68;76.94;96744.36;622309;228;64806;-74
2022/09/30 06:33:51;;;;;;;;;;;;;;;19.68;76.86;96739.03;622345;228;66988;-73
2022/09/30 06:36:19;;;;;;;;;;;;;;;19.67;76.59;96740.91;622447;228;62903;-77
2022/09/30 06:38:53;;;;;;;;;;;;;;;19.69;76.56;96740.63;622328;228;65546;-78
2022/09/30 06:41:19;;;;;;;;;;;;;;;19.69;76.38;96753.95;622463;228;48100;-77
2022/09/30 06:43:46;;;;;;;;;;;;;;;19.69;76.35;96757.41;622404;228;64653;-77
2022/09/30 06:46:14;;;;;;;;;;;;;;;19.69;76.31;96757.41;622310;228;67219;-73
2022/09/30 06:48:42;;;;;;;;;;;;;;;19.70;76.01;96747.57;622400;228;67835;-75
2022/09/30 06:51:09;;;;;;;;;;;;;;;19.70;75.81;96756.36;622400;228;65934;-76
2022/09/30 06:53:38;;;;;;;;;;;;;;;19.70;76.84;96759.03;622420;228;67866;-73
2022/09/30 06:56:06;;;;;;;;;;;;;;;19.70;75.93;96759.03;622383;228;67054;-75
2022/09/30 06:58:34;;;;;;;;;;;;;;;19.70;75.80;96755.56;622394;228;62869;-76
2022/09/30 07:01:03;;;;;;;;;;;;;;;19.69;75.66;96752.08;622382;228;67347;-74
2022/09/30 07:03:33;;;;;;;;;;;;;;;19.69;75.62;96760.08;622248;228;45837;-74
2022/09/30 07:06:02;;;;;;;;;;;;;;;19.70;75.62;96779.56;622400;228;63719;-74
2022/09/30 07:08:31;;;;;;;;;;;;;;;19.71;75.62;96783.81;622405;228;68071;-74
2022/09/30 07:10:59;;;;;;;;;;;;;;;19.71;75.42;96791.81;622403;228;64979;-73
2022/09/30 07:13:27;;;;;;;;;;;;;;;19.70;75.41;96788.36;618154;228;63679;-74
2022/09/30 07:15:55;;;;;;;;;;;;;;;19.70;75.38;96784.89;616021;229;66875;-74
2022/09/30 07:18:23;;;;;;;;;;;;;;;19.71;75.32;96781.95;617637;229;64794;-74
2022/09/30 07:20:52;;;;;;;;;;;;;;;19.71;75.29;96781.15;617613;229;62987;-74
2022/09/30 07:23:20;;;;;;;;;;;;;;;19.71;75.22;96768.61;617651;229;65800;-73
2022/09/30 07:25:52;;;;;;;;;;;;;;;19.70;75.21;96775.02;617614;229;67486;-74
2022/09/30 07:28:21;;;;;;;;;;;;;;;19.71;75.24;96781.95;617581;229;65671;-73
2022/09/30 07:30:54;;;;;;;;;;;;;;;19.72;75.16;96774.73;617517;228;44220;-75
2022/09/30 07:33:19;;;;;;;;;;;;;;;19.71;75.18;96765.95;617395;228;64646;-72
2022/09/30 07:35:51;;;;;;;;;;;;;;;19.71;75.16;96781.95;617545;229;62864;-73
2022/09/30 07:38:20;;;;;;;;;;;;;;;19.72;75.02;96785.41;617505;229;67042;-73
2022/09/30 07:40:52;;;;;;;;;;;;;;;19.72;75.03;96783.56;617502;229;66991;-68
2022/09/30 07:43:20;;;;;;;;;;;;;;;19.71;74.93;96781.95;615974;228;64877;-67
2022/09/30 07:45:48;;;;;;;;;;;;;;;19.72;74.85;96788.89;618279;227;67047;-67
2022/09/30 07:51:01;;;;;;;;;;;;;;;19.74;74.75;96785.95;617605;229;65285;-67
2022/09/30 07:53:29;;;;;;;;;;;;;;;19.74;74.77;96786.73;617589;229;66664;-67
2022/09/30 07:55:59;;;;;;;;;;;;;;;19.74;74.86;96789.41;617560;229;67085;-67
2022/09/30 07:58:26;;;;;;;;;;;;;;;19.76;74.85;96791.02;617572;228;65115;-67
2022/09/30 08:00:54;;;;;;;;;;;;;;;19.76;74.97;96793.69;617626;229;67244;-67
2022/09/30 08:03:21;;;;;;;;;;;;;;;19.75;75.02;96790.20;617568;229;67205;-67
2022/09/30 08:05:49;;;;;;;;;;;;;;;19.76;75.03;96799.02;617626;229;64922;-67
2022/09/30 08:08:17;;;;;;;;;;;;;;;19.76;75.03;96788.36;617548;229;64879;-66
2022/09/30 08:10:44;;;;;;;;;;;;;;;19.76;75.13;96793.69;617604;229;64785;-75
2022/09/30 08:13:15;;;;;;;;;;;;;;;19.76;75.18;96797.15;617555;229;63649;-74
2022/09/30 08:15:43;;;;;;;;;;;;;;;19.77;75.20;96789.94;617288;229;67068;-74
2022/09/30 08:18:10;;;;;;;;;;;;;;;19.77;75.20;96782.73;615258;230;66879;-78
2022/09/30 08:20:38;;;;;;;;;;;;;;;19.77;75.28;96787.27;615288;230;65023;-77
2022/09/30 08:23:05;;;;;;;;;;;;;;;19.77;75.28;96784.61;615245;230;67001;-77
2022/09/30 08:25:33;;;;;;;;;;;;;;;19.78;75.36;96799.53;615291;230;64883;-77
2022/09/30 08:28:00;;;;;;;;;;;;;;;19.78;75.36;96796.86;615378;230;65062;-78
2022/09/30 08:30:28;;;;;;;;;;;;;;;19.78;75.44;96794.20;615320;228;66991;-77
2022/09/30 08:32:55;;;;;;;;;;;;;;;19.77;75.48;96793.41;615219;230;66127;-77
2022/09/30 08:35:23;;;;;;;;;;;;;;;19.78;75.51;96791.53;615283;230;62781;-77
2022/09/30 08:37:50;;;;;;;;;;;;;;;19.78;75.51;96802.20;615284;230;67281;-76
2022/09/30 08:40:28;;;;;;;;;;;;;;;19.78;75.58;96803.02;614859;230;66642;-76
2022/09/30 08:42:57;;;;;;;;;;;;;;;19.79;75.56;96801.94;615213;230;62809;-77
2022/09/30 08:45:30;;;;;;;;;;;;;;;19.79;75.64;96803.81;614939;230;66730;-65
2022/09/30 08:48:02;;;;;;;;;;;;;;;19.79;75.68;96799.27;615245;230;67040;-77
2022/09/30 08:50:34;;;;;;;;;;;;;;;19.79;75.88;96809.14;615336;230;62931;-77
2022/09/30 08:53:02;;;;;;;;;;;;;;;19.79;75.79;96809.14;615247;230;66818;-77
2022/09/30 08:55:32;;;;;;;;;;;;;;;19.78;75.75;96811.02;615270;230;63724;-74
2022/09/30 08:58:01;;;;;;;;;;;;;;;19.79;75.79;96809.14;614414;230;64801;-78
2022/09/30 09:00:28;;;;;;;;;;;;;;;19.79;75.83;96812.61;615197;230;66913;-77
2022/09/30 09:02:57;;;;;;;;;;;;;;;19.79;75.88;96811.81;615239;229;64796;-77
2022/09/30 09:05:29;;;;;;;;;;;;;;;19.79;75.86;96809.94;615330;230;62781;-77
2022/09/30 09:08:17;;;;;;;;;;;;;;;19.79;75.89;96809.14;615144;230;66733;-78
2022/09/30 09:10:53;;;;;;;;;;;;;;;19.79;75.86;96812.61;615315;228;65654;-76
2022/09/30 09:13:32;;;;;;;;;;;;;;;19.79;75.94;96820.61;615238;230;62686;-77
2022/09/30 09:16:01;;;;;;;;;;;;;;;19.80;75.98;96826.73;615183;229;65270;-77
2022/09/30 09:18:36;;;;;;;;;;;;;;;19.80;76.03;96824.06;615303;230;66977;-77
2022/09/30 09:21:14;;;;;;;;;;;;;;;19.79;76.05;96819.81;615328;230;62728;-74
2022/09/30 09:23:42;;;;;;;;;;;;;;;19.80;76.07;96829.41;615145;230;64813;-76
2022/09/30 09:26:11;;;;;;;;;;;;;;;19.80;76.12;96829.41;615343;230;66847;-76
2022/09/30 09:28:40;;;;;;;;;;;;;;;19.80;76.08;96821.41;615276;228;62793;-74
2022/09/30 09:31:10;;;;;;;;;;;;;;;19.80;76.13;96829.41;615342;230;66864;-77
2022/09/30 09:33:38;;;;;;;;;;;;;;;19.80;76.15;96832.06;618003;228;64891;-77
2022/09/30 09:36:16;;;;;;;;;;;;;;;19.80;76.16;96826.73;617749;228;63696;-75
2022/09/30 09:38:46;;;;;;;;;;;;;;;19.79;76.15;96819.81;617124;228;68352;-77
2022/09/30 09:41:29;;;;;;;;;;;;;;;19.81;76.17;96825.69;615637;229;66828;-76
2022/09/30 09:44:07;;;;;;;;;;;;;;;19.81;76.13;96823.02;614816;230;66076;-78
2022/09/30 09:46:40;;;;;;;;;;;;;;;19.80;76.09;96840.06;615347;228;64970;-76
2022/09/30 09:49:22;;;;;;;;;;;;;;;19.81;76.56;96841.69;615674;230;67006;-77
2022/09/30 09:52:02;;;;;;;;;;;;;;;19.81;76.43;96841.69;615193;230;62917;-75
2022/09/30 09:54:29;;;;;;;;;;;;;;;19.79;76.08;96844.61;615671;230;67200;-77
2022/09/30 09:56:59;;;;;;;;;;;;;;;19.79;76.00;96839.27;615624;230;65526;-76
2022/09/30 09:59:27;;;;;;;;;;;;;;;19.80;76.00;96853.40;615366;230;64886;-79
2022/09/30 10:01:54;;;;;;;;;;;;;;;19.80;76.02;96853.40;615619;230;64883;-76
2022/09/30 10:04:27;;;;;;;;;;;;;;;19.79;76.01;96857.14;615662;230;68536;-77
2022/09/30 10:07:01;;;;;;;;;;;;;;;19.79;76.04;96852.60;615700;230;65146;-77
2022/09/30 10:09:33;;;;;;;;;;;;;;;19.83;76.10;96852.86;615543;230;64929;-76
2022/09/30 10:12:08;;;;;;;;;;;;;;;19.85;75.97;96856.86;615619;230;67080;-76
2022/09/30 10:14:49;;;;;;;;;;;;;;;19.86;75.54;96841.66;615678;230;62915;-77
2022/09/30 10:17:11;;;;;;;;;;;;;;;19.88;75.50;96852.86;617298;229;67445;-76
2022/09/30 10:19:40;;;;;;;;;;;;;;;19.88;75.49;96853.66;618501;228;66820;-74
2022/09/30 10:22:10;;;;;;;;;;;;;;;19.89;75.45;96857.16;618762;229;64906;-75
2022/09/30 10:24:39;;;;;;;;;;;;;;;19.88;75.55;96850.20;618785;229;64696;-76
2022/09/30 10:27:25;;;;;;;;;;;;;;;19.87;75.65;96853.94;618605;229;64595;-64
2022/09/30 10:29:52;;;;;;;;;;;;;;;19.85;75.55;96862.20;618707;229;65294;-78
2022/09/30 10:32:20;;;;;;;;;;;;;;;19.84;75.75;96863.27;618751;229;67201;-79
2022/09/30 10:34:49;;;;;;;;;;;;;;;19.84;75.63;96849.94;618682;229;67692;-71
2022/09/30 10:37:18;;;;;;;;;;;;;;;19.86;76.13;96846.99;618561;227;63997;-79
2022/09/30 10:39:47;;;;;;;;;;;;;;;19.85;76.10;96846.20;618750;229;67060;-79
2022/09/30 10:42:20;;;;;;;;;;;;;;;19.85;75.88;96846.20;618589;228;66899;-79
2022/09/30 10:44:49;;;;;;;;;;;;;;;19.85;76.08;96851.53;618696;229;62814;-79
2022/09/30 10:47:18;;;;;;;;;;;;;;;19.84;75.95;96844.61;617665;228;67043;-74
2022/09/30 10:49:47;;;;;;;;;;;;;;;19.84;76.02;96841.94;618752;229;64793;-75
2022/09/30 10:52:16;;;;;;;;;;;;;;;19.84;76.02;96833.94;618739;229;62757;-77
2022/09/30 10:54:45;;;;;;;;;;;;;;;19.85;76.09;96838.20;618222;228;64913;-74
2022/09/30 10:57:17;;;;;;;;;;;;;;;19.85;76.01;96848.06;618648;229;64760;-74
2022/09/30 10:59:45;;;;;;;;;;;;;;;19.85;75.90;96840.07;618715;229;64911;-77
2022/09/30 11:02:14;;;;;;;;;;;;;;;19.85;75.86;96848.06;618677;229;68027;-78
2022/09/30 11:04:47;;;;;;;;;;;;;;;19.86;75.88;96844.33;617758;228;64764;-76
2022/09/30 11:07:32;;;;;;;;;;;;;;;19.86;75.95;96852.33;618790;229;63836;-77
2022/09/30 11:10:04;;;;;;;;;;;;;;;19.85;75.92;96840.07;618611;229;67214;-77
2022/09/30 11:12:34;;;;;;;;;;;;;;;19.85;75.91;96846.20;618684;228;66676;-77
2022/09/30 11:15:03;;;;;;;;;;;;;;;19.86;75.87;96844.33;618074;229;65007;-77
2022/09/30 11:17:32;;;;;;;;;;;;;;;19.85;75.95;96845.41;617685;228;64797;-75
2022/09/30 11:20:04;;;;;;;;;;;;;;;19.85;75.90;96842.73;617606;229;67172;-75
2022/09/30 11:22:35;;;;;;;;;;;;;;;19.86;75.95;96846.99;617601;229;62554;-75
2022/09/30 11:25:03;;;;;;;;;;;;;;;19.86;75.94;96841.66;617523;228;66993;-72
2022/09/30 11:27:35;;;;;;;;;;;;;;;19.86;75.89;96852.33;617589;229;66838;-74
2022/09/30 11:30:16;;;;;;;;;;;;;;;19.87;75.91;96845.94;617402;228;65148;-73
2022/09/30 11:32:51;;;;;;;;;;;;;;;19.87;75.88;96845.94;617638;229;67121;-76
2022/09/30 11:35:30;;;;;;;;;;;;;;;19.86;75.94;96855.81;617516;229;67201;-73
2022/09/30 11:38:10;;;;;;;;;;;;;;;19.86;75.88;96860.33;617533;229;65114;-73
2022/09/30 11:40:46;;;;;;;;;;;;;;;19.86;75.90;96854.98;617579;228;65453;-75
2022/09/30 11:43:15;;;;;;;;;;;;;;;19.87;75.96;96856.61;617557;228;66918;-74
2022/09/30 11:45:47;;;;;;;;;;;;;;;19.86;75.98;96857.66;617492;228;66043;-73
2022/09/30 11:48:35;;;;;;;;;;;;;;;19.87;75.93;96869.94;617591;229;67287;-74
2022/09/30 11:51:10;;;;;;;;;;;;;;;19.87;75.96;96869.94;617608;229;67787;-73
2022/09/30 11:53:39;;;;;;;;;;;;;;;19.86;76.02;96868.33;617576;228;63009;-74
2022/09/30 11:56:14;;;;;;;;;;;;;;;19.87;76.06;96869.94;617527;228;64809;-74
2022/09/30 11:58:43;;;;;;;;;;;;;;;19.86;76.04;96858.48;616893;229;66858;-74
2022/09/30 12:01:29;;;;;;;;;;;;;;;19.87;76.03;96859.28;617285;228;64885;-76
2022/09/30 12:04:07;;;;;;;;;;;;;;;19.86;76.05;96866.48;617662;229;64442;-77
2022/09/30 12:06:36;;;;;;;;;;;;;;;19.87;76.10;96864.61;617618;229;66864;-79
2022/09/30 12:09:08;;;;;;;;;;;;;;;19.87;76.01;96870.73;617624;229;62827;-77
2022/09/30 12:11:37;;;;;;;;;;;;;;;19.87;76.03;96856.61;617519;229;67001;-80
2022/09/30 12:14:05;;;;;;;;;;;;;;;19.88;76.09;96860.86;617645;228;66922;-75
2022/09/30 12:16:34;;;;;;;;;;;;;;;19.88;76.08;96868.87;618077;228;63766;-82
2022/09/30 12:19:15;;;;;;;;;;;;;;;19.88;76.02;96868.87;618714;229;67259;-82
2022/09/30 12:22:00;;;;;;;;;;;;;;;19.88;76.02;96866.20;619506;226;65683;-77
2022/09/30 12:24:35;;;;;;;;;;;;;;;19.88;76.04;96869.66;619704;226;62808;-78
2022/09/30 12:27:04;;;;;;;;;;;;;;;19.88;76.08;96868.87;618732;229;64808;-84
2022/09/30 12:32:26;;;;;;;;;;;;;;;19.89;76.04;96881.16;616837;229;65337;-68
2022/09/30 12:35:04;;;;;;;;;;;;;;;19.89;76.00;96883.82;618647;229;67025;-75
2022/09/30 12:37:50;;;;;;;;;;;;;;;19.89;76.08;96883.82;618390;228;65167;-78
2022/09/30 12:40:23;;;;;;;;;;;;;;;19.88;76.04;96888.33;618718;229;63984;-80
2022/09/30 12:42:55;;;;;;;;;;;;;;;19.89;75.93;96883.82;618788;229;67188;-80
2022/09/30 12:45:40;;;;;;;;;;;;;;;19.89;75.97;96884.61;618699;229;64739;-79
2022/09/30 12:48:12;;;;;;;;;;;;;;;19.88;76.01;96882.99;618718;229;65203;-79
2022/09/30 12:50:43;;;;;;;;;;;;;;;19.89;76.00;96886.48;618749;228;64808;-77
2022/09/30 12:53:12;;;;;;;;;;;;;;;19.89;76.01;96884.61;618703;228;64668;-80
2022/09/30 12:55:41;;;;;;;;;;;;;;;19.89;75.99;96894.48;618620;228;62769;-77
2022/09/30 12:58:10;;;;;;;;;;;;;;;19.89;75.94;96886.48;618796;229;66751;-73
2022/09/30 13:00:38;;;;;;;;;;;;;;;19.90;76.01;96891.53;617942;228;64700;-75
2022/09/30 13:03:07;;;;;;;;;;;;;;;19.89;75.97;96892.62;618643;229;62924;-76
2022/09/30 13:05:42;;;;;;;;;;;;;;;19.89;75.94;96895.28;618795;229;67087;-75
2022/09/30 13:08:07;;;;;;;;;;;;;;;19.90;75.90;96901.41;617748;229;67570;-75
2022/09/30 13:10:40;;;;;;;;;;;;;;;19.91;75.81;96908.33;618703;227;62774;-72